Time;durP1;ratioP1;P1;durP2;ratioP2;P2;SDS_P1;SDS_P2;PMS_P1;PMS_P2;Temp;Humidity;BMP_temperature;BMP_pressure;BME280_temperature;BME280_humidity;BME280_pressure;Samples;Min_cycle;Max_cycle;Signal;HPM_P1;HPM_P2
2023/07/05 00:01:25;;;;;;;11.45;6.68;;;;;;;19.41;75.08;96352.97;5094792;28;20077;-65
2023/07/05 00:03:53;;;;;;;9.98;6.55;;;;;;;19.32;75.10;96345.72;5094659;28;20131;-65
2023/07/05 00:06:20;;;;;;;10.48;6.88;;;;;;;19.24;76.15;96345.47;5094614;28;20113;-65
2023/07/05 00:08:47;;;;;;;8.48;7.38;;;;;;;19.09;77.21;96352.78;5094756;28;20047;-65
2023/07/05 00:11:15;;;;;;;8.52;6.90;;;;;;;19.13;77.51;96355.09;5094693;28;20114;-65
2023/07/05 00:13:42;;;;;;;7.45;6.57;;;;;;;19.12;76.74;96350.75;5094597;28;20055;-65
2023/07/05 00:16:11;;;;;;;8.65;6.72;;;;;;;19.15;76.90;96347.84;5094573;28;20123;-65
2023/07/05 00:18:38;;;;;;;9.80;6.43;;;;;;;19.19;76.77;96348.47;5094471;28;20040;-66
2023/07/05 00:21:08;;;;;;;8.68;6.85;;;;;;;19.24;76.65;96350.78;5094378;28;20044;-65
2023/07/05 00:23:37;;;;;;;8.43;6.85;;;;;;;19.25;76.33;96355.13;5094409;28;20409;-65
2023/07/05 00:26:05;;;;;;;9.65;7.15;;;;;;;19.24;76.12;96346.34;5094328;28;20097;-65
2023/07/05 00:28:34;;;;;;;7.93;6.57;;;;;;;19.26;75.83;96355.00;5094214;28;20105;-65
2023/07/05 00:31:01;;;;;;;8.02;6.97;;;;;;;19.22;76.06;96352.69;5094325;28;20055;-65
2023/07/05 00:33:28;;;;;;;10.48;6.63;;;;;;;19.25;75.92;96352.47;5094217;28;20066;-65
2023/07/05 00:35:56;;;;;;;7.35;6.63;;;;;;;19.19;75.37;96348.47;5094191;28;20048;-65
2023/07/05 00:38:25;;;;;;;8.90;7.32;;;;;;;19.09;75.92;96353.66;5094070;28;20044;-65
2023/07/05 00:40:52;;;;;;;9.05;6.70;;;;;;;19.05;76.14;96350.34;5094126;28;20073;-65
2023/07/05 00:43:21;;;;;;;8.40;6.80;;;;;;;18.92;76.55;96347.78;5093361;28;20074;-65
2023/07/05 00:45:56;;;;;;;11.55;7.05;;;;;;;18.94;76.67;96350.31;5093822;28;20101;-65
2023/07/05 00:48:36;;;;;;;7.63;6.82;;;;;;;18.96;76.70;96345.72;5093865;28;20520;-65
2023/07/05 00:51:14;;;;;;;9.02;7.68;;;;;;;18.96;76.96;96348.38;5093887;28;20048;-65
2023/07/05 00:53:43;;;;;;;10.20;7.10;;;;;;;18.91;76.80;96339.94;5093820;28;20062;-65
2023/07/05 00:56:13;;;;;;;8.98;7.53;;;;;;;18.89;77.06;96345.34;5093808;28;20218;-65
2023/07/05 00:58:42;;;;;;;9.73;7.20;;;;;;;18.87;77.82;96346.44;5093773;28;20044;-65
2023/07/05 01:01:09;;;;;;;12.85;6.95;;;;;;;18.82;78.07;96347.59;5093754;28;20044;-65
2023/07/05 01:03:37;;;;;;;7.85;6.65;;;;;;;18.85;77.40;96337.75;5093708;28;20052;-65
2023/07/05 01:06:06;;;;;;;11.57;7.07;;;;;;;18.89;77.29;96331.25;5093661;28;20083;-65
2023/07/05 01:08:33;;;;;;;7.57;6.78;;;;;;;18.93;77.01;96335.34;5093511;28;20502;-65
2023/07/05 01:11:10;;;;;;;9.43;6.75;;;;;;;18.92;77.03;96331.88;5093521;28;20047;-65
2023/07/05 01:13:43;;;;;;;7.97;6.68;;;;;;;18.91;76.70;96329.34;5093500;28;20051;-66
2023/07/05 01:16:30;;;;;;;10.45;7.57;;;;;;;18.75;77.06;96334.94;5093378;28;20082;-65
2023/07/05 01:19:06;;;;;;;8.63;7.53;;;;;;;18.74;77.44;96330.59;5093517;28;20040;-65
2023/07/05 01:21:43;;;;;;;10.50;7.18;;;;;;;18.77;77.59;96333.03;5093394;28;20052;-65
2023/07/05 01:24:45;;;;;;;7.88;6.68;;;;;;;18.76;77.10;96323.38;5093382;28;20123;-65
2023/07/05 01:27:45;;;;;;;7.45;6.50;;;;;;;18.70;76.81;96322.06;5093382;28;20052;-65
2023/07/05 01:30:41;;;;;;;11.00;7.32;;;;;;;18.63;77.39;96318.16;5093367;28;20143;-65
2023/07/05 01:33:14;;;;;;;8.40;7.30;;;;;;;18.59;77.36;96324.63;5093194;28;20121;-65
2023/07/05 01:35:49;;;;;;;10.50;7.05;;;;;;;18.51;77.89;96319.94;5093272;28;20044;-65
2023/07/05 01:38:16;;;;;;;8.50;7.35;;;;;;;18.51;77.94;96319.94;5093087;28;20074;-65
2023/07/05 01:40:57;;;;;;;10.88;7.00;;;;;;;18.51;77.98;96314.63;5093224;28;20052;-65
2023/07/05 01:43:26;;;;;;;9.70;6.93;;;;;;;18.48;77.89;96310.38;5093287;28;20048;-65
2023/07/05 01:46:03;;;;;;;8.55;6.78;;;;;;;18.41;77.93;96302.06;5092781;28;20505;-66
2023/07/05 01:48:44;;;;;;;11.30;7.35;;;;;;;18.40;78.37;96302.16;5092990;28;20058;-65
2023/07/05 01:51:20;;;;;;;9.23;6.85;;;;;;;18.43;78.62;96310.72;5093154;28;20544;-66
2023/07/05 01:53:56;;;;;;;8.00;7.03;;;;;;;18.40;78.25;96304.81;5093947;28;20130;-66
2023/07/05 01:56:30;;;;;;;10.63;7.18;;;;;;;18.41;78.02;96306.50;5097158;28;20397;-66
2023/07/05 01:59:01;;;;;;;9.57;7.32;;;;;;;18.39;78.42;96303.97;5097248;28;20052;-66
2023/07/05 02:01:28;;;;;;;;;;;;;;;18.40;78.43;96296.88;5097671;28;20048;-65
2023/07/05 02:03:57;;;;;;;8.73;6.43;;;;;;;18.37;77.89;96300.59;5097153;28;19967;-66
2023/07/05 02:06:25;;;;;;;11.48;7.90;;;;;;;18.37;78.26;96302.41;5096861;28;20048;-66
2023/07/05 02:08:52;;;;;;;10.63;7.45;;;;;;;18.39;78.26;96300.50;5097133;28;20083;-67
2023/07/05 02:11:19;;;;;;;9.63;7.00;;;;;;;18.41;77.91;96304.72;5096935;28;20052;-66
2023/07/05 02:13:46;;;;;;;9.23;7.00;;;;;;;18.42;77.87;96311.69;5096867;28;20140;-66
2023/07/05 02:16:14;;;;;;;11.65;6.85;;;;;;;18.37;77.79;96302.41;5096907;28;20051;-66
2023/07/05 02:18:41;;;;;;;9.85;7.30;;;;;;;18.38;77.77;96304.94;5096754;28;20048;-66
2023/07/05 02:21:12;;;;;;;9.13;7.55;;;;;;;18.36;77.79;96295.44;5096809;28;20044;-66
2023/07/05 02:23:39;;;;;;;9.73;7.38;;;;;;;18.41;77.96;96315.31;5096619;28;20561;-66
2023/07/05 02:26:08;;;;;;;9.23;7.72;;;;;;;18.43;78.65;96309.91;5096543;28;20475;-66
2023/07/05 02:28:35;;;;;;;7.75;7.00;;;;;;;18.36;78.60;96312.13;5096679;28;20098;-66
2023/07/05 02:31:09;;;;;;;9.77;7.13;;;;;;;18.36;78.10;96314.78;5096716;28;20044;-66
2023/07/05 02:33:36;;;;;;;10.35;7.10;;;;;;;18.27;79.17;96308.34;5096572;28;20456;-66
2023/07/05 02:36:09;;;;;;;11.77;7.60;;;;;;;18.12;80.86;96310.31;5096480;28;20063;-66
2023/07/05 02:38:39;;;;;;;8.35;7.50;;;;;;;18.10;80.44;96311.38;5096467;28;20059;-66
2023/07/05 02:41:07;;;;;;;8.65;7.60;;;;;;;18.11;80.17;96313.06;5096504;28;20054;-66
2023/07/05 02:43:35;;;;;;;8.77;7.10;;;;;;;18.13;80.00;96313.81;5096484;28;20075;-66
2023/07/05 02:46:02;;;;;;;8.75;7.47;;;;;;;18.15;79.99;96314.56;5096010;28;20497;-66
2023/07/05 02:48:30;;;;;;;10.68;7.57;;;;;;;18.13;79.25;96317.31;5096264;28;20075;-66
2023/07/05 02:50:57;;;;;;;10.90;7.63;;;;;;;18.12;79.47;96318.25;5096265;28;20166;-66
2023/07/05 02:53:24;;;;;;;12.68;7.25;;;;;;;18.13;79.42;96325.25;5096177;28;20090;-66
2023/07/05 02:55:53;;;;;;;7.88;7.07;;;;;;;18.13;79.79;96325.25;5096177;28;20122;-66
2023/07/05 02:58:20;;;;;;;9.38;7.97;;;;;;;18.13;79.96;96327.06;5096063;28;20059;-66
2023/07/05 03:00:47;;;;;;;9.90;7.35;;;;;;;18.03;80.14;96330.31;5096024;28;20070;-66
2023/07/05 03:03:14;;;;;;;9.60;7.65;;;;;;;18.04;80.31;96333.81;5095982;28;20547;-66
2023/07/05 03:05:41;;;;;;;8.45;7.60;;;;;;;18.09;79.95;96339.63;5095106;28;20097;-66
2023/07/05 03:08:09;;;;;;;11.02;8.30;;;;;;;18.07;79.67;96330.97;5095907;28;20052;-66
2023/07/05 03:10:39;;;;;;;8.60;7.70;;;;;;;18.06;80.18;96321.31;5095882;28;20052;-66
2023/07/05 03:13:08;;;;;;;9.25;7.47;;;;;;;18.02;79.93;96326.00;5095784;28;20134;-66
2023/07/05 03:15:35;;;;;;;10.98;7.68;;;;;;;17.96;80.95;96322.94;5095915;28;20059;-66
2023/07/05 03:18:02;;;;;;;9.20;8.30;;;;;;;17.91;82.72;96318.81;5095634;28;20044;-66
2023/07/05 03:20:29;;;;;;;12.38;9.23;;;;;;;17.90;83.67;96314.50;5095632;28;20139;-66
2023/07/05 03:22:56;;;;;;;10.95;8.07;;;;;;;18.03;83.31;96313.63;5095637;28;20044;-66
2023/07/05 03:25:24;;;;;;;10.57;8.38;;;;;;;18.12;82.92;96312.13;5095435;28;20048;-66
2023/07/05 03:27:51;;;;;;;9.38;7.65;;;;;;;18.17;82.20;96317.94;5095418;28;20055;-66
2023/07/05 03:30:20;;;;;;;10.85;8.18;;;;;;;18.19;81.74;96308.91;5095380;28;20050;-66
2023/07/05 03:32:47;;;;;;;9.25;8.35;;;;;;;18.28;82.08;96303.91;5095418;28;20044;-66
2023/07/05 03:35:16;;;;;;;8.10;7.30;;;;;;;18.44;81.90;96308.94;5095584;28;20044;-66
2023/07/05 03:37:43;;;;;;;11.05;8.15;;;;;;;18.64;81.09;96306.59;5095373;28;20051;-66
2023/07/05 03:40:12;;;;;;;9.05;7.13;;;;;;;18.89;80.16;96310.06;5095332;28;20040;-66
2023/07/05 03:42:39;;;;;;;10.52;7.40;;;;;;;19.15;79.03;96309.91;5095254;28;20059;-66
2023/07/05 03:45:07;;;;;;;8.10;7.25;;;;;;;19.41;77.61;96310.53;5095009;28;20102;-66
2023/07/05 03:47:36;;;;;;;8.43;7.35;;;;;;;19.72;76.73;96312.63;5095185;28;20398;-66
2023/07/05 03:50:03;;;;;;;8.13;7.00;;;;;;;20.08;75.24;96307.19;5095114;28;20063;-66
2023/07/05 03:52:31;;;;;;;10.35;8.18;;;;;;;20.42;73.45;96307.09;5095055;28;20584;-66
2023/07/05 03:54:59;;;;;;;7.07;6.35;;;;;;;20.66;71.98;96300.72;5094829;28;20048;-66
2023/07/05 03:57:26;;;;;;;8.90;7.00;;;;;;;21.02;70.34;96305.78;5094955;28;20048;-66
2023/07/05 03:59:53;;;;;;;9.25;6.50;;;;;;;21.39;69.65;96311.56;5094874;28;20055;-67
2023/07/05 04:02:21;;;;;;;7.50;6.65;;;;;;;21.78;68.51;96311.78;5094759;28;20059;-66
2023/07/05 04:04:49;;;;;;;7.88;7.07;;;;;;;22.11;67.78;96313.41;5094739;28;20040;-66
2023/07/05 04:07:16;;;;;;;7.97;6.18;;;;;;;22.48;66.59;96307.44;5094715;28;20692;-66
2023/07/05 04:09:44;;;;;;;7.45;6.65;;;;;;;22.89;65.34;96307.34;5094674;28;20048;-66
2023/07/05 04:12:12;;;;;;;7.20;6.20;;;;;;;23.28;63.82;96301.13;5094767;28;20048;-66
2023/07/05 04:14:39;;;;;;;10.40;6.63;;;;;;;23.63;61.98;96308.63;5094715;28;20056;-66
2023/07/05 04:17:07;;;;;;;10.00;6.53;;;;;;;23.94;61.37;96303.84;5093654;28;20131;-67
2023/07/05 04:19:34;;;;;;;6.75;5.90;;;;;;;24.30;60.49;96302.28;5094400;28;20059;-66
2023/07/05 04:22:02;;;;;;;11.38;6.38;;;;;;;24.57;59.42;96308.56;5094395;28;20047;-66
2023/07/05 04:24:29;;;;;;;8.73;6.28;;;;;;;24.74;58.96;96307.69;5094377;28;20043;-66
2023/07/05 04:26:56;;;;;;;8.98;6.45;;;;;;;25.06;58.45;96305.50;5094225;28;20079;-67
2023/07/05 04:29:24;;;;;;;7.07;6.38;;;;;;;25.42;58.01;96311.75;5094248;28;20452;-66
2023/07/05 04:31:51;;;;;;;9.77;6.35;;;;;;;25.73;56.52;96319.31;5094249;28;20047;-67
2023/07/05 04:34:18;;;;;;;6.20;5.60;;;;;;;25.97;56.10;96317.75;5094187;28;20481;-67
2023/07/05 04:36:45;;;;;;;8.70;6.18;;;;;;;26.24;55.43;96323.88;5094198;28;20134;-67
2023/07/05 04:39:14;;;;;;;9.50;5.63;;;;;;;26.55;54.58;96322.47;5094126;28;20055;-66
2023/07/05 04:41:41;;;;;;;8.55;6.25;;;;;;;26.83;53.13;96319.50;5094162;28;20040;-66
2023/07/05 04:44:09;;;;;;;8.13;6.55;;;;;;;27.07;52.40;96326.75;5094002;28;20048;-66
2023/07/05 04:46:36;;;;;;;8.57;6.78;;;;;;;27.33;51.73;96328.38;5093759;28;20059;-66
2023/07/05 04:49:04;;;;;;;7.70;6.07;;;;;;;27.57;50.22;96326.66;5094099;28;20452;-66
2023/07/05 04:51:31;;;;;;;11.75;7.07;;;;;;;27.79;49.11;96323.47;5094041;28;20493;-66
2023/07/05 04:53:59;;;;;;;10.30;7.30;;;;;;;27.87;48.04;96334.16;5093852;28;20082;-67
2023/07/05 04:56:27;;;;;;;11.70;7.03;;;;;;;27.96;47.60;96333.13;5093912;28;20056;-67
2023/07/05 04:58:54;;;;;;;9.00;6.50;;;;;;;28.08;48.24;96330.09;5093800;28;20051;-67
2023/07/05 05:01:22;;;;;;;8.02;7.20;;;;;;;28.24;47.17;96330.00;5093808;28;20075;-67
2023/07/05 05:03:49;;;;;;;10.90;7.40;;;;;;;28.43;46.79;96327.91;5093701;28;20046;-67
2023/07/05 05:06:16;;;;;;;11.73;6.82;;;;;;;28.52;48.11;96328.72;5093670;28;20051;-67
2023/07/05 05:08:43;;;;;;;8.25;6.82;;;;;;;28.69;47.18;96321.38;5093727;28;20054;-67
2023/07/05 05:11:10;;;;;;;8.73;6.25;;;;;;;28.81;46.33;96315.56;5093603;28;20547;-67
2023/07/05 05:13:39;;;;;;;8.27;6.40;;;;;;;29.08;46.90;96318.75;5093565;28;20044;-67
2023/07/05 05:16:06;;;;;;;7.53;6.82;;;;;;;29.18;45.23;96316.66;5093621;28;20138;-67
2023/07/05 05:18:35;;;;;;;12.18;6.47;;;;;;;29.36;45.96;96318.16;5093565;28;20047;-67
2023/07/05 05:21:02;;;;;;;9.18;7.13;;;;;;;29.61;45.27;96313.41;5093418;28;20493;-67
2023/07/05 05:23:30;;;;;;;9.10;6.72;;;;;;;29.81;45.21;96309.31;5093528;28;20040;-67
2023/07/05 05:25:58;;;;;;;9.57;7.43;;;;;;;30.04;45.00;96308.38;5093436;28;20044;-67
2023/07/05 05:28:25;;;;;;;9.55;6.93;;;;;;;30.22;44.79;96306.13;5092976;28;20513;-67
2023/07/05 05:31:00;;;;;;;8.32;6.70;;;;;;;30.32;44.55;96305.00;5093393;28;20130;-67
2023/07/05 05:33:27;;;;;;;9.43;6.68;;;;;;;30.52;44.46;96306.06;5093395;28;20040;-67
2023/07/05 05:35:55;;;;;;;7.85;6.97;;;;;;;30.71;43.53;96306.47;5093241;28;20052;-67
2023/07/05 05:38:22;;;;;;;8.88;6.55;;;;;;;30.85;41.86;96309.31;5093340;28;20566;-67
2023/07/05 05:40:51;;;;;;;9.77;6.30;;;;;;;31.11;42.48;96307.88;5093261;28;20048;-67
2023/07/05 05:43:19;;;;;;;9.80;7.18;;;;;;;31.36;40.59;96304.78;5093164;28;20071;-68
2023/07/05 05:45:46;;;;;;;7.45;6.75;;;;;;;31.57;40.12;96309.28;5092857;28;20087;-67
2023/07/05 05:48:15;;;;;;;9.00;6.90;;;;;;;31.72;41.42;96301.06;5093157;28;20729;-67
2023/07/05 05:50:42;;;;;;;13.60;6.70;;;;;;;31.62;39.37;96308.69;5093083;28;20044;-68
2023/07/05 05:53:10;;;;;;;9.05;6.75;;;;;;;31.78;39.92;96299.41;5093088;28;20044;-67
2023/07/05 05:55:38;;;;;;;10.00;6.60;;;;;;;31.93;40.02;96302.03;5092998;28;20044;-68
2023/07/05 05:58:05;;;;;;;6.65;5.93;;;;;;;32.02;40.49;96300.00;5093023;28;20047;-68
2023/07/05 06:00:33;;;;;;;12.13;6.82;;;;;;;32.18;40.02;96300.69;5093000;28;20048;-68
2023/07/05 06:03:01;;;;;;;10.20;6.10;;;;;;;32.25;39.41;96307.78;5093034;28;20040;-68
2023/07/05 06:05:30;;;;;;;10.68;7.35;;;;;;;32.33;40.98;96305.94;5093031;28;20055;-68
2023/07/05 06:07:57;;;;;;;9.48;6.97;;;;;;;32.37;39.01;96305.34;5092798;28;20056;-68
2023/07/05 06:10:24;;;;;;;12.50;6.85;;;;;;;32.50;39.53;96306.44;5092920;28;20058;-68
2023/07/05 06:12:52;;;;;;;7.25;6.55;;;;;;;32.60;39.02;96297.94;5092932;28;20106;-68
2023/07/05 06:15:19;;;;;;;8.50;6.30;;;;;;;32.68;39.22;96303.16;5093152;28;20066;-67
2023/07/05 06:17:47;;;;;;;8.30;6.72;;;;;;;32.92;39.02;96305.50;5092868;28;20123;-68
2023/07/05 06:20:15;;;;;;;6.82;6.13;;;;;;;33.11;38.99;96310.09;5092876;28;20123;-67
2023/07/05 06:22:44;;;;;;;8.07;6.07;;;;;;;33.26;38.71;96304.47;5092911;28;20444;-68
2023/07/05 06:25:11;;;;;;;11.35;5.70;;;;;;;33.40;38.89;96310.72;5092772;28;20052;-67
2023/07/05 06:27:39;;;;;;;9.30;6.20;;;;;;;33.52;38.88;96305.50;5092578;28;20091;-67
2023/07/05 06:30:07;;;;;;;7.93;6.40;;;;;;;33.58;39.61;96309.22;5092813;28;20044;-68
2023/07/05 06:32:35;;;;;;;8.50;6.28;;;;;;;33.56;39.33;96307.78;5092832;28;20101;-68
2023/07/05 06:35:02;;;;;;;10.57;6.68;;;;;;;33.47;39.29;96304.47;5092783;28;20043;-67
2023/07/05 06:37:30;;;;;;;6.88;5.28;;;;;;;33.53;39.76;96306.34;5092706;28;20478;-68
2023/07/05 06:39:58;;;;;;;8.10;6.25;;;;;;;33.65;39.71;96303.84;5092807;28;20571;-67
2023/07/05 06:42:26;;;;;;;7.78;6.55;;;;;;;33.70;39.07;96303.19;5096261;28;20130;-68
2023/07/05 06:44:53;;;;;;;7.05;6.28;;;;;;;33.85;38.73;96301.06;5096419;28;20044;-68
2023/07/05 06:47:21;;;;;;;7.40;6.63;;;;;;;34.05;37.34;96302.88;5096189;28;20059;-68
2023/07/05 06:49:48;;;;;;;11.00;7.22;;;;;;;34.10;37.01;96299.53;5096262;28;20051;-68
2023/07/05 06:52:15;;;;;;;7.60;6.80;;;;;;;34.12;38.24;96297.41;5096206;28;20048;-67
2023/07/05 06:54:44;;;;;;;7.68;6.15;;;;;;;34.25;38.85;96302.00;5096174;28;20444;-68
2023/07/05 06:57:12;;;;;;;10.25;6.50;;;;;;;34.39;37.90;96292.75;5096120;28;20055;-67
2023/07/05 06:59:43;;;;;;;10.35;6.55;;;;;;;34.54;38.05;96299.75;5096000;28;20068;-67
2023/07/05 07:02:11;;;;;;;7.07;6.20;;;;;;;34.23;38.07;96290.53;5096038;28;20076;-67
2023/07/05 07:04:38;;;;;;;9.90;6.63;;;;;;;34.20;38.19;96294.50;5095963;28;20410;-68
2023/07/05 07:07:06;;;;;;;7.60;6.03;;;;;;;34.35;38.06;96291.53;5095786;28;20052;-67
2023/07/05 07:09:34;;;;;;;8.73;6.35;;;;;;;34.50;37.69;96293.94;5095882;28;20047;-67
2023/07/05 07:12:01;;;;;;;8.05;6.70;;;;;;;34.49;38.36;96296.88;5095970;28;20079;-68
2023/07/05 07:14:29;;;;;;;8.35;6.75;;;;;;;34.66;37.75;96299.94;5095912;28;20048;-67
2023/07/05 07:16:57;;;;;;;13.77;6.78;;;;;;;34.84;37.89;96299.19;5095693;28;20055;-68
2023/07/05 07:19:24;;;;;;;7.28;6.47;;;;;;;34.89;38.10;96301.25;5095793;28;20052;-67
2023/07/05 07:21:51;;;;;;;11.10;6.65;;;;;;;34.92;38.13;96292.66;5095636;28;20059;-68
2023/07/05 07:24:18;;;;;;;12.05;6.68;;;;;;;34.92;37.90;96298.09;5095710;28;20459;-67
2023/07/05 07:26:46;;;;;;;8.23;6.05;;;;;;;34.93;37.66;96297.03;5095522;28;20044;-67
2023/07/05 07:29:13;;;;;;;11.70;6.40;;;;;;;35.13;37.99;96296.03;5095481;28;20044;-67
2023/07/05 07:31:42;;;;;;;9.45;6.75;;;;;;;35.08;37.65;96295.88;5095384;28;20048;-68
2023/07/05 07:34:09;;;;;;;8.05;5.95;;;;;;;35.20;37.29;96296.00;5095381;28;20390;-67
2023/07/05 07:36:37;;;;;;;8.63;6.43;;;;;;;35.40;36.80;96290.41;5095373;28;20417;-68
2023/07/05 07:39:04;;;;;;;9.13;5.90;;;;;;;35.39;35.76;96291.44;5095434;28;20046;-68
2023/07/05 07:41:33;;;;;;;7.82;6.32;;;;;;;35.42;36.36;96288.28;5095299;28;20048;-68
2023/07/05 07:44:02;;;;;;;7.30;5.75;;;;;;;35.18;37.30;96293.50;5095055;28;20452;-67
2023/07/05 07:46:31;;;;;;;7.72;6.93;;;;;;;34.92;37.92;96296.19;5094945;28;20040;-67
2023/07/05 07:49:01;;;;;;;9.02;6.10;;;;;;;34.77;39.09;96292.97;5095139;28;20056;-67
2023/07/05 07:51:30;;;;;;;7.28;6.28;;;;;;;35.01;38.39;96285.91;5094777;28;20054;-68
2023/07/05 07:53:57;;;;;;;7.60;6.32;;;;;;;35.27;38.58;96284.03;5095103;28;20048;-67
2023/07/05 07:56:26;;;;;;;7.70;5.78;;;;;;;35.46;39.22;96289.53;5095099;28;20044;-68
2023/07/05 07:58:55;;;;;;;8.75;7.32;;;;;;;35.60;38.55;96284.75;5094985;28;20047;-68
2023/07/05 08:01:24;;;;;;;8.38;6.47;;;;;;;35.69;38.19;96289.94;5094930;28;20401;-68
2023/07/05 08:03:51;;;;;;;;;;;;;;;35.77;37.89;96295.06;5095642;28;20070;-68
2023/07/05 08:06:21;;;;;;;11.05;5.80;;;;;;;35.80;38.50;96286.47;5094890;28;19924;-68
2023/07/05 08:08:48;;;;;;;9.88;6.55;;;;;;;35.80;38.13;96297.34;5094736;28;20101;-68
2023/07/05 08:11:15;;;;;;;8.68;6.50;;;;;;;35.92;38.21;96290.09;5094627;28;20052;-68
2023/07/05 08:13:44;;;;;;;7.32;5.93;;;;;;;36.05;39.95;96285.53;5094658;28;20048;-68
2023/07/05 08:16:11;;;;;;;9.55;6.05;;;;;;;36.05;38.48;96285.53;5094633;28;20048;-68
2023/07/05 08:18:38;;;;;;;12.65;7.13;;;;;;;36.04;38.21;96284.72;5094593;28;20048;-68
2023/07/05 08:21:06;;;;;;;9.98;6.88;;;;;;;36.13;37.86;96296.13;5094873;28;20075;-68
2023/07/05 08:23:34;;;;;;;7.25;6.55;;;;;;;35.99;38.96;96297.38;5094444;28;20044;-69
2023/07/05 08:26:01;;;;;;;8.20;6.65;;;;;;;36.01;38.99;96290.63;5094345;28;20119;-68
2023/07/05 08:28:29;;;;;;;8.88;6.68;;;;;;;35.96;38.71;96293.19;5094575;28;20052;-68
2023/07/05 08:30:59;;;;;;;11.38;7.03;;;;;;;35.92;38.22;96291.97;5094417;28;20075;-68
2023/07/05 08:33:27;;;;;;;8.02;7.03;;;;;;;35.77;37.08;96285.03;5094271;28;20516;-68
2023/07/05 08:36:08;;;;;;;9.68;6.63;;;;;;;35.31;39.50;96284.44;5094202;28;20052;-68
2023/07/05 08:38:39;;;;;;;8.82;7.07;;;;;;;35.09;41.96;96283.97;5094232;28;20051;-68
2023/07/05 08:41:16;;;;;;;7.82;6.47;;;;;;;35.15;39.65;96288.50;5094200;28;20047;-68
2023/07/05 08:43:51;;;;;;;8.02;6.40;;;;;;;35.21;40.34;96289.53;5094127;28;20048;-68
2023/07/05 08:46:20;;;;;;;7.72;6.53;;;;;;;35.13;41.70;96283.31;5094036;28;20056;-68
2023/07/05 08:48:49;;;;;;;12.40;7.38;;;;;;;34.98;40.74;96280.91;5093924;28;20113;-68
2023/07/05 08:51:18;;;;;;;7.88;7.07;;;;;;;35.15;41.35;96283.91;5093919;28;20052;-68
2023/07/05 08:53:52;;;;;;;13.65;6.80;;;;;;;35.07;40.81;96280.63;5093949;28;20064;-68
2023/07/05 08:56:25;;;;;;;8.50;7.03;;;;;;;35.18;40.42;96287.25;5093832;28;20093;-68
2023/07/05 08:58:59;;;;;;;9.45;6.82;;;;;;;34.82;42.01;96278.75;5094079;28;20048;-67
2023/07/05 09:01:28;;;;;;;9.70;6.72;;;;;;;34.77;40.49;96285.66;5093867;28;20071;-68
2023/07/05 09:03:56;;;;;;;13.45;7.97;;;;;;;34.70;42.27;96281.31;5093175;28;20040;-68
2023/07/05 09:06:27;;;;;;;10.30;7.35;;;;;;;34.45;39.56;96282.06;5093624;28;20044;-68
2023/07/05 09:09:09;;;;;;;;;;;;;;;34.14;42.39;96279.09;5094078;28;20070;-68
2023/07/05 09:11:46;;;;;;;10.50;7.68;;;;;;;34.08;43.83;96274.50;5093593;28;19931;-68
2023/07/05 09:14:23;;;;;;;9.05;7.82;;;;;;;34.09;42.69;96271.56;5093601;28;20048;-68
2023/07/05 09:16:57;;;;;;;9.95;7.65;;;;;;;33.99;42.78;96271.19;5093548;28;20044;-68
2023/07/05 09:19:39;;;;;;;9.65;7.68;;;;;;;33.77;43.11;96272.31;5093497;28;20131;-68
2023/07/05 09:22:11;;;;;;;8.23;7.43;;;;;;;33.67;43.88;96268.41;5093498;28;20062;-68
2023/07/05 09:24:41;;;;;;;11.55;7.85;;;;;;;33.20;44.56;96255.72;5093403;28;20474;-68
2023/07/05 09:27:15;;;;;;;9.70;8.00;;;;;;;33.31;49.23;96265.91;5093298;28;20051;-68
2023/07/05 09:29:47;;;;;;;11.25;7.88;;;;;;;33.64;45.96;96262.34;5093504;28;20048;-68
2023/07/05 09:32:18;;;;;;;10.77;7.25;;;;;;;33.72;44.26;96261.28;5093428;28;20040;-68
2023/07/05 09:34:50;;;;;;;14.88;7.88;;;;;;;33.70;46.36;96257.94;5093796;28;20040;-68
2023/07/05 09:37:20;;;;;;;15.80;7.90;;;;;;;33.79;45.80;96253.13;5093466;28;20055;-68
2023/07/05 09:40:02;;;;;;;26.42;8.13;;;;;;;33.81;46.06;96256.47;5093363;28;20402;-68
2023/07/05 09:42:34;;;;;;;10.23;8.25;;;;;;;33.55;45.25;96249.22;5093495;28;20052;-68
2023/07/05 09:45:02;;;;;;;15.38;8.55;;;;;;;33.51;43.84;96246.94;5092858;28;20044;-68
2023/07/05 09:47:30;;;;;;;14.10;9.10;;;;;;;33.10;44.03;96248.84;5092993;28;20091;-68
2023/07/05 09:49:57;;;;;;;11.88;9.20;;;;;;;31.94;46.24;96256.91;5093162;28;20482;-67
2023/07/05 09:52:27;;;;;;;12.93;9.00;;;;;;;31.33;48.06;96243.84;5093393;28;20056;-67
2023/07/05 09:55:01;;;;;;;18.98;8.60;;;;;;;31.52;50.31;96239.63;5093176;28;20051;-67
2023/07/05 09:57:28;;;;;;;12.52;8.57;;;;;;;31.52;46.55;96239.63;5093076;28;20134;-68
2023/07/05 09:59:56;;;;;;;12.60;9.13;;;;;;;31.20;47.74;96241.91;5092975;28;20055;-67
2023/07/05 10:02:26;;;;;;;11.43;8.38;;;;;;;30.59;48.80;96240.53;5093094;28;20048;-68
2023/07/05 10:04:56;;;;;;;11.10;8.63;;;;;;;30.07;50.34;96246.00;5093104;28;20044;-68
2023/07/05 10:07:27;;;;;;;9.15;8.25;;;;;;;29.79;51.39;96236.75;5092842;28;20138;-68
2023/07/05 10:10:01;;;;;;;16.92;8.68;;;;;;;29.69;52.84;96230.81;5092920;28;20056;-68
2023/07/05 10:12:34;;;;;;;9.90;8.50;;;;;;;29.68;52.81;96238.06;5092912;28;20048;-67
2023/07/05 10:15:01;;;;;;;9.23;8.10;;;;;;;29.54;51.41;96230.78;5094158;28;20085;-67
2023/07/05 10:17:46;;;;;;;9.93;8.18;;;;;;;29.58;52.45;96229.41;5096836;28;20054;-67
2023/07/05 10:20:25;;;;;;;8.80;7.90;;;;;;;29.52;50.66;96230.97;5096933;28;20048;-68
2023/07/05 10:23:01;;;;;;;9.27;8.32;;;;;;;29.70;52.09;96224.38;5096958;28;20451;-67
2023/07/05 10:25:34;;;;;;;10.85;7.93;;;;;;;29.78;53.13;96218.91;5096662;28;20047;-67
2023/07/05 10:28:04;;;;;;;9.18;7.93;;;;;;;29.99;52.96;96226.22;5096776;28;20059;-67
2023/07/05 10:30:33;;;;;;;9.10;7.68;;;;;;;30.14;52.69;96217.25;5096887;28;20088;-67
2023/07/05 10:33:16;;;;;;;13.90;8.43;;;;;;;30.46;49.98;96216.97;5096689;28;20052;-67
2023/07/05 10:35:47;;;;;;;9.93;7.28;;;;;;;30.63;49.71;96223.78;5096584;28;20127;-67
2023/07/05 10:38:27;;;;;;;8.13;7.32;;;;;;;30.42;47.74;96223.75;5096481;28;20054;-66
2023/07/05 10:41:01;;;;;;;18.17;8.07;;;;;;;30.44;48.85;96219.03;5096520;28;20070;-67
2023/07/05 10:43:32;;;;;;;9.85;7.22;;;;;;;30.61;52.55;96219.59;5096346;28;20101;-67
2023/07/05 10:46:02;;;;;;;7.63;6.93;;;;;;;30.94;51.20;96215.56;5096173;28;20514;-67
2023/07/05 10:48:40;;;;;;;9.95;7.60;;;;;;;30.84;48.21;96216.72;5096325;28;20052;-68
2023/07/05 10:51:18;;;;;;;8.45;7.47;;;;;;;30.99;48.10;96208.53;5096271;28;20044;-67
2023/07/05 10:53:53;;;;;;;8.27;7.30;;;;;;;31.14;47.15;96212.97;5096249;28;20051;-67
2023/07/05 10:56:26;;;;;;;9.50;7.15;;;;;;;31.22;47.88;96210.16;5096196;28;20096;-68
2023/07/05 10:59:02;;;;;;;13.98;7.15;;;;;;;31.20;46.28;96214.06;5096087;28;20048;-67
2023/07/05 11:01:33;;;;;;;9.75;6.72;;;;;;;31.08;45.48;96209.22;5096088;28;20047;-67
2023/07/05 11:04:07;;;;;;;11.88;7.03;;;;;;;31.27;46.08;96198.72;5096077;28;20047;-68
2023/07/05 11:06:36;;;;;;;7.63;6.93;;;;;;;31.56;47.51;96196.00;5095963;28;20054;-67
2023/07/05 11:09:05;;;;;;;10.27;6.87;;;;;;;31.56;44.83;96191.44;5095965;28;20066;-68
2023/07/05 11:11:41;;;;;;;10.70;7.00;;;;;;;31.72;46.62;96187.56;5096031;28;20543;-67
2023/07/05 11:14:13;;;;;;;8.18;6.10;;;;;;;31.90;45.54;96187.00;5095816;28;20044;-68
2023/07/05 11:16:44;;;;;;;7.35;6.20;;;;;;;31.97;45.87;96189.78;5096028;28;20063;-67
2023/07/05 11:19:17;;;;;;;6.88;6.07;;;;;;;31.86;44.80;96185.75;5095783;28;20116;-67
2023/07/05 11:21:46;;;;;;;8.10;6.93;;;;;;;31.76;46.27;96179.88;5095616;28;20102;-67
2023/07/05 11:24:14;;;;;;;9.77;6.43;;;;;;;31.73;44.30;96183.84;5095715;28;20048;-67
2023/07/05 11:26:44;;;;;;;8.30;6.75;;;;;;;31.74;43.19;96160.31;5094936;28;20101;-68
2023/07/05 11:29:44;;;;;;;7.15;6.30;;;;;;;31.78;43.28;96172.38;5095813;28;20490;-67
2023/07/05 11:32:11;;;;;;;9.57;6.60;;;;;;;31.51;43.52;96170.41;5095564;28;20135;-68
2023/07/05 11:34:50;;;;;;;6.88;6.20;;;;;;;30.97;44.95;96167.38;5095472;28;20113;-67
2023/07/05 11:37:42;;;;;;;7.32;6.63;;;;;;;30.98;44.79;96173.63;5095404;28;20054;-67
2023/07/05 11:40:55;;;;;;;7.93;6.28;;;;;;;30.77;46.76;96180.75;5080572;28;20079;-68
2023/07/05 11:43:32;;;;;;;7.25;6.47;;;;;;;30.82;44.64;96172.06;5095265;28;20075;-67
2023/07/05 11:46:00;;;;;;;7.72;6.05;;;;;;;31.04;45.77;96167.44;5095045;28;20041;-68